createdAt,value
2019-03-27T00:05:27.331Z,7.20
2019-03-27T00:07:58.541Z,7.20
2019-03-27T00:10:40.288Z,7.00
2019-03-27T00:13:22.642Z,7.10
2019-03-27T00:16:07.707Z,7.10
2019-03-27T00:18:52.088Z,7.10
2019-03-27T00:21:35.286Z,7.20
2019-03-27T00:24:16.950Z,7.10
2019-03-27T00:26:59.357Z,7.10
2019-03-27T00:29:30.187Z,7.10
2019-03-27T00:32:20.305Z,7.10
2019-03-27T00:35:02.723Z,7.10
2019-03-27T00:37:46.758Z,7.00
2019-03-27T00:40:29.002Z,6.80
2019-03-27T00:43:11.221Z,6.80
2019-03-27T00:45:54.195Z,6.80
2019-03-27T00:48:35.972Z,6.60
2019-03-27T00:51:17.746Z,6.70
2019-03-27T00:54:03.114Z,6.70
2019-03-27T00:56:46.385Z,6.60
2019-03-27T00:59:28.328Z,6.60
2019-03-27T01:02:13.374Z,6.50
2019-03-27T01:04:56.581Z,6.40
2019-03-27T01:07:38.588Z,6.30
2019-03-27T01:10:21.191Z,6.20
2019-03-27T01:13:03.807Z,6.20
2019-03-27T01:15:46.999Z,6.10
2019-03-27T01:18:29.045Z,6.10
2019-03-27T01:21:10.992Z,6.10
2019-03-27T01:23:52.981Z,6.00
2019-03-27T01:26:35.235Z,5.80
2019-03-27T01:29:17.570Z,5.70
2019-03-27T01:31:59.927Z,5.60
2019-03-27T01:34:42.020Z,5.70
2019-03-27T01:37:13.399Z,5.60
2019-03-27T01:40:03.112Z,5.60
2019-03-27T01:42:46.579Z,5.50
2019-03-27T01:45:29.005Z,5.60
2019-03-27T01:48:10.990Z,5.60
2019-03-27T01:50:52.491Z,5.50
2019-03-27T01:53:34.824Z,5.50
2019-03-27T01:56:16.570Z,5.50
2019-03-27T01:58:58.901Z,5.40
2019-03-27T02:04:36.399Z,5.30
2019-03-27T02:07:21.264Z,5.20
2019-03-27T02:10:03.258Z,5.10
2019-03-27T02:12:45.368Z,4.90
2019-03-27T02:18:19.648Z,4.70
2019-03-27T02:21:01.850Z,4.60
2019-03-27T02:23:45.985Z,4.60
2019-03-27T02:26:28.337Z,4.60
2019-03-27T02:29:14.487Z,4.70
2019-03-27T02:31:56.396Z,4.60
2019-03-27T02:34:41.544Z,4.70
2019-03-27T02:37:24.944Z,4.70
2019-03-27T02:40:06.750Z,4.80
2019-03-27T02:42:52.631Z,4.90
2019-03-27T02:45:34.149Z,4.90
2019-03-27T02:48:17.151Z,4.90
2019-03-27T02:51:00.155Z,5.00
2019-03-27T02:53:44.915Z,5.00
2019-03-27T02:56:26.379Z,5.00
2019-03-27T02:59:08.256Z,5.00
2019-03-27T03:01:50.588Z,5.00
2019-03-27T03:04:33.186Z,5.00
2019-03-27T03:07:15.506Z,5.10
2019-03-27T03:09:58.692Z,5.10
2019-03-27T03:12:41.001Z,5.10
2019-03-27T03:15:23.517Z,5.10
2019-03-27T03:18:07.733Z,5.20
2019-03-27T03:20:51.121Z,5.10
2019-03-27T03:23:35.051Z,5.20
2019-03-27T03:26:17.223Z,5.20
2019-03-27T03:29:03.593Z,5.10
2019-03-27T03:31:45.617Z,5.10
2019-03-27T03:34:27.442Z,5.00
2019-03-27T03:37:09.410Z,5.10
2019-03-27T03:39:40.360Z,5.00
2019-03-27T03:42:24.262Z,5.00
2019-03-27T03:45:07.443Z,5.00
2019-03-27T03:47:50.604Z,5.10
2019-03-27T03:53:13.197Z,5.10
2019-03-27T03:55:57.493Z,5.20
2019-03-27T03:58:43.328Z,5.20
2019-03-27T04:01:24.974Z,5.20
2019-03-27T04:04:06.815Z,5.20
2019-03-27T04:06:49.091Z,5.20
2019-03-27T04:09:31.847Z,5.20
2019-03-27T04:12:14.954Z,5.30
2019-03-27T04:14:45.931Z,5.30
2019-03-27T04:17:23.935Z,5.40
2019-03-27T04:20:13.665Z,5.40
2019-03-27T04:22:56.025Z,5.50
2019-03-27T04:25:28.576Z,5.60
2019-03-27T04:28:10.238Z,5.70
2019-03-27T04:30:52.077Z,5.80
2019-03-27T04:33:34.805Z,5.90
2019-03-27T04:36:17.175Z,6.00
2019-03-27T04:39:02.039Z,6.20
2019-03-27T04:41:44.013Z,6.30
2019-03-27T04:44:29.230Z,6.20
2019-03-27T04:47:12.187Z,6.20
2019-03-27T04:49:54.418Z,6.30
2019-03-27T04:52:37.322Z,6.20
2019-03-27T04:55:21.666Z,6.10
2019-03-27T04:58:11.360Z,6.10
2019-03-27T05:00:51.010Z,6.10
2019-03-27T05:03:36.321Z,6.20
2019-03-27T05:06:19.513Z,6.20
2019-03-27T05:09:03.314Z,6.30
2019-03-27T05:11:45.737Z,6.40
2019-03-27T05:14:27.794Z,6.40
2019-03-27T05:20:05.659Z,6.40
2019-03-27T05:22:49.137Z,6.40
2019-03-27T05:28:29.460Z,6.40
2019-03-27T05:31:11.619Z,6.40
2019-03-27T05:33:55.981Z,6.30
2019-03-27T05:36:45.612Z,6.30
2019-03-27T05:39:28.352Z,6.30
2019-03-27T05:42:10.358Z,6.20
2019-03-27T05:44:52.991Z,6.30
2019-03-27T05:47:38.715Z,6.20
2019-03-27T05:50:21.018Z,6.30
2019-03-27T05:53:07.215Z,6.30
2019-03-27T05:55:56.028Z,6.40
2019-03-27T05:58:38.331Z,6.50
2019-03-27T06:01:20.468Z,6.50
2019-03-27T06:04:02.034Z,6.50
2019-03-27T06:06:44.389Z,6.60
2019-03-27T06:09:26.461Z,6.60
2019-03-27T06:12:08.537Z,6.60
2019-03-27T06:14:52.062Z,6.70
2019-03-27T06:20:37.806Z,6.90
2019-03-27T06:23:19.787Z,6.80
2019-03-27T06:26:01.371Z,6.80
2019-03-27T06:28:45.411Z,6.80
2019-03-27T06:31:27.504Z,6.80
2019-03-27T06:34:13.623Z,6.80
2019-03-27T06:36:55.461Z,6.80
2019-03-27T06:39:38.237Z,6.80
2019-03-27T06:42:22.657Z,6.80
2019-03-27T06:45:06.702Z,6.80
2019-03-27T06:47:48.849Z,6.90
2019-03-27T06:50:34.908Z,6.90
2019-03-27T06:53:17.795Z,6.90
2019-03-27T06:56:00.880Z,7.00
2019-03-27T06:58:54.454Z,7.00
2019-03-27T07:01:28.726Z,7.10
2019-03-27T07:04:11.164Z,7.10
2019-03-27T07:09:56.551Z,7.20
2019-03-27T07:12:38.316Z,7.30
2019-03-27T07:15:20.288Z,7.30
2019-03-27T07:18:02.381Z,7.40
2019-03-27T07:20:44.861Z,7.50
2019-03-27T07:23:27.369Z,7.50
2019-03-27T07:26:08.817Z,7.50
2019-03-27T07:28:39.772Z,7.60
2019-03-27T07:34:32.236Z,7.70
2019-03-27T07:37:14.729Z,7.70
2019-03-27T07:39:56.838Z,7.70
2019-03-27T07:42:43.714Z,7.80
2019-03-27T07:45:27.732Z,7.90
2019-03-27T07:48:11.827Z,8.10
2019-03-27T07:50:59.707Z,8.30
2019-03-27T07:53:42.891Z,8.30
2019-03-27T07:56:24.869Z,8.50
2019-03-27T07:59:08.907Z,8.60
2019-03-27T08:01:51.085Z,8.60
2019-03-27T08:07:26.247Z,8.70
2019-03-27T08:10:24.955Z,8.70
2019-03-27T08:13:06.593Z,8.70
2019-03-27T08:15:49.252Z,8.90
2019-03-27T08:18:31.919Z,9.10
2019-03-27T08:21:14.524Z,9.30
2019-03-27T08:23:56.623Z,9.50
2019-03-27T08:26:38.701Z,9.70
2019-03-27T08:29:22.363Z,9.80
2019-03-27T08:32:05.161Z,9.80
2019-03-27T08:34:47.518Z,9.90
2019-03-27T08:37:29.674Z,10.00
2019-03-27T08:40:11.467Z,10.20
2019-03-27T08:42:53.626Z,10.20
2019-03-27T08:45:38.599Z,10.30
2019-03-27T08:48:20.894Z,10.20
2019-03-27T08:51:05.187Z,10.30
2019-03-27T08:53:49.606Z,10.60
2019-03-27T08:56:31.646Z,10.90
2019-03-27T08:59:13.631Z,11.20
2019-03-27T09:01:55.829Z,11.20
2019-03-27T09:04:38.103Z,11.30
2019-03-27T09:07:20.322Z,11.50
2019-03-27T09:10:02.645Z,11.40
2019-03-27T09:12:44.655Z,11.40
2019-03-27T09:15:27.973Z,11.30
2019-03-27T09:18:09.741Z,11.00
2019-03-27T09:20:40.554Z,11.00
2019-03-27T09:23:22.398Z,10.90
2019-03-27T09:26:04.584Z,10.90
2019-03-27T09:28:46.491Z,10.90
2019-03-27T09:31:28.543Z,10.90
2019-03-27T09:34:10.884Z,10.80
2019-03-27T09:36:52.991Z,10.60
2019-03-27T09:39:37.006Z,10.50
2019-03-27T09:42:19.214Z,10.40
2019-03-27T09:44:50.261Z,10.40
2019-03-27T09:47:34.453Z,10.50
2019-03-27T09:50:15.778Z,10.40
2019-03-27T09:52:57.854Z,10.50
2019-03-27T09:55:43.823Z,10.50
2019-03-27T09:58:28.686Z,10.50
2019-03-27T10:01:11.584Z,10.40
2019-03-27T10:03:53.701Z,10.40
2019-03-27T10:06:37.286Z,10.50
2019-03-27T10:09:18.922Z,10.50
2019-03-27T10:12:00.992Z,10.70
2019-03-27T10:14:43.121Z,10.80
2019-03-27T10:17:25.167Z,11.00
2019-03-27T10:20:07.313Z,11.10
2019-03-27T10:22:49.376Z,11.10
2019-03-27T10:25:31.510Z,11.20
2019-03-27T10:28:13.513Z,11.20
2019-03-27T10:30:56.568Z,11.30
2019-03-27T10:33:38.615Z,11.40
2019-03-27T10:36:20.316Z,11.40
2019-03-27T10:39:02.371Z,11.50
2019-03-27T10:41:45.527Z,11.50
2019-03-27T10:44:27.961Z,11.60
2019-03-27T10:47:10.265Z,11.70
2019-03-27T10:49:52.501Z,11.60
2019-03-27T10:52:34.600Z,11.60
2019-03-27T10:55:16.776Z,11.60
2019-03-27T10:57:59.006Z,11.70
2019-03-27T11:00:41.016Z,11.70
2019-03-27T11:03:12.147Z,11.60
2019-03-27T11:05:42.956Z,11.60
2019-03-27T11:08:32.463Z,11.60
2019-03-27T11:11:14.606Z,11.70
2019-03-27T11:13:56.499Z,11.60
2019-03-27T11:16:38.423Z,11.70
2019-03-27T11:19:20.645Z,11.60
2019-03-27T11:22:02.546Z,11.70
2019-03-27T11:24:47.232Z,11.80
2019-03-27T11:27:30.258Z,12.00
2019-03-27T11:30:12.084Z,12.20
2019-03-27T11:32:54.311Z,12.30
2019-03-27T11:35:36.203Z,12.50
2019-03-27T11:38:18.243Z,12.60
2019-03-27T11:41:00.323Z,12.60
2019-03-27T11:43:54.147Z,12.70
2019-03-27T11:46:26.786Z,12.70
2019-03-27T11:49:08.639Z,12.80
2019-03-27T11:51:50.447Z,12.80
2019-03-27T11:54:32.330Z,12.70
2019-03-27T11:57:14.067Z,12.60
2019-03-27T11:59:53.814Z,12.50
2019-03-27T12:02:34.202Z,12.50
2019-03-27T12:05:16.185Z,12.50
2019-03-27T12:07:58.729Z,12.70
2019-03-27T12:10:41.306Z,12.60
2019-03-27T12:13:23.623Z,12.60
2019-03-27T12:16:05.689Z,12.60
2019-03-27T12:18:47.863Z,12.50
2019-03-27T12:21:29.914Z,12.50
2019-03-27T12:24:11.344Z,12.50
2019-03-27T12:26:53.227Z,12.60
2019-03-27T12:29:35.318Z,12.50
2019-03-27T12:32:17.550Z,12.60
2019-03-27T12:34:59.676Z,12.60
2019-03-27T12:37:41.527Z,12.60
2019-03-27T12:40:23.814Z,12.50
2019-03-27T12:43:05.630Z,12.70
2019-03-27T12:45:47.799Z,12.60
2019-03-27T12:48:30.136Z,12.60
2019-03-27T12:51:13.312Z,12.60
2019-03-27T12:53:55.081Z,12.60
2019-03-27T12:56:36.938Z,12.40
2019-03-27T12:59:19.712Z,12.30
2019-03-27T13:02:01.704Z,12.30
2019-03-27T13:04:43.598Z,12.10
2019-03-27T13:07:25.855Z,12.10
2019-03-27T13:10:08.022Z,12.10
2019-03-27T13:12:50.054Z,12.00
2019-03-27T13:15:32.189Z,12.10
2019-03-27T13:18:14.152Z,12.30
2019-03-27T13:20:55.670Z,12.30
2019-03-27T13:23:37.146Z,12.20
2019-03-27T13:26:19.237Z,12.30
2019-03-27T13:29:01.532Z,12.10
2019-03-27T13:31:43.755Z,12.00
2019-03-27T13:34:25.887Z,11.80
2019-03-27T13:37:08.047Z,11.80
2019-03-27T13:39:50.108Z,11.60
2019-03-27T13:42:32.483Z,11.60
2019-03-27T13:45:14.785Z,11.60
2019-03-27T13:47:45.638Z,11.60
2019-03-27T13:50:35.415Z,11.50
2019-03-27T13:53:17.163Z,11.50
2019-03-27T13:56:01.080Z,11.50
2019-03-27T13:58:31.887Z,11.60
2019-03-27T14:01:13.929Z,11.60
2019-03-27T14:03:56.198Z,11.90
2019-03-27T14:06:38.425Z,12.00
2019-03-27T14:09:20.426Z,12.20
2019-03-27T14:12:02.652Z,12.40
2019-03-27T14:14:50.386Z,12.50
2019-03-27T14:17:27.712Z,12.50
2019-03-27T14:19:58.544Z,12.60
2019-03-27T14:22:42.134Z,12.80
2019-03-27T14:28:34.980Z,12.80
2019-03-27T14:31:17.306Z,12.70
2019-03-27T14:33:48.128Z,12.60
2019-03-27T14:36:37.699Z,12.50
2019-03-27T14:39:19.858Z,12.30
2019-03-27T14:42:02.028Z,12.30
2019-03-27T14:44:44.030Z,12.10
2019-03-27T14:47:25.808Z,12.00
2019-03-27T14:50:08.212Z,11.90
2019-03-27T14:52:51.145Z,11.90
2019-03-27T14:55:21.986Z,11.80
2019-03-27T14:58:13.223Z,11.80
2019-03-27T15:00:58.139Z,11.60
2019-03-27T15:03:29.176Z,11.60
2019-03-27T15:06:18.759Z,11.60
2019-03-27T15:09:00.781Z,11.60
2019-03-27T15:11:43.267Z,11.60
2019-03-27T15:14:25.619Z,11.70
2019-03-27T15:17:07.760Z,11.70
2019-03-27T15:19:49.921Z,11.70
2019-03-27T15:22:32.664Z,11.70
2019-03-27T15:25:15.047Z,11.70
2019-03-27T15:27:57.215Z,11.70
2019-03-27T15:30:28.099Z,11.60
2019-03-27T15:32:58.933Z,11.60
2019-03-27T15:35:29.818Z,11.60
2019-03-27T15:38:00.563Z,11.60
2019-03-27T15:40:50.170Z,11.60
2019-03-27T15:43:32.437Z,11.50
2019-03-27T15:46:14.911Z,11.60
2019-03-27T15:48:57.095Z,11.60
2019-03-27T15:51:39.241Z,11.70
2019-03-27T15:54:21.493Z,11.70
2019-03-27T15:57:03.743Z,11.80
2019-03-27T15:59:34.608Z,11.70
2019-03-27T16:02:16.924Z,11.80
2019-03-27T16:04:59.037Z,11.80
2019-03-27T16:07:42.774Z,11.70
2019-03-27T16:10:24.957Z,11.60
2019-03-27T16:13:07.191Z,11.60
2019-03-27T16:15:49.422Z,11.60
2019-03-27T16:18:31.530Z,11.60
2019-03-27T16:21:13.539Z,11.60
2019-03-27T16:24:05.810Z,11.60
2019-03-27T16:26:38.953Z,11.50
2019-03-27T16:29:21.216Z,11.40
2019-03-27T16:32:03.176Z,11.40
2019-03-27T16:34:45.217Z,11.30
2019-03-27T16:37:27.187Z,11.20
2019-03-27T16:40:10.107Z,11.20
2019-03-27T16:42:52.123Z,11.30
2019-03-27T16:45:34.114Z,11.30
2019-03-27T16:48:16.254Z,11.20
2019-03-27T16:50:59.547Z,11.10
2019-03-27T16:53:41.638Z,11.10
2019-03-27T16:56:23.818Z,11.10
2019-03-27T16:59:05.470Z,11.10
2019-03-27T17:01:38.010Z,11.00
2019-03-27T17:04:20.062Z,10.90
2019-03-27T17:07:02.080Z,10.90
2019-03-27T17:09:44.061Z,10.90
2019-03-27T17:12:25.920Z,10.90
2019-03-27T17:15:08.020Z,10.90
2019-03-27T17:17:38.876Z,10.80
2019-03-27T17:20:20.965Z,10.80
2019-03-27T17:23:16.824Z,10.70
2019-03-27T17:25:46.797Z,10.60
2019-03-27T17:28:29.055Z,10.60
2019-03-27T17:31:11.319Z,10.50
2019-03-27T17:33:42.160Z,10.50
2019-03-27T17:36:31.743Z,10.40
2019-03-27T17:39:13.297Z,10.40
2019-03-27T17:41:44.574Z,10.30
2019-03-27T17:44:34.258Z,10.30
2019-03-27T17:47:16.038Z,10.30
2019-03-27T17:49:58.023Z,10.20
2019-03-27T17:52:28.837Z,10.10
2019-03-27T17:55:10.645Z,10.10
2019-03-27T17:57:41.483Z,10.00
2019-03-27T18:00:23.814Z,10.00
2019-03-27T18:03:05.898Z,9.90
2019-03-27T18:05:47.953Z,9.90
2019-03-27T18:08:29.907Z,9.90
2019-03-27T18:11:11.826Z,9.90
2019-03-27T18:13:44.078Z,9.80
2019-03-27T18:16:25.914Z,9.80
2019-03-27T18:19:07.998Z,9.80
2019-03-27T18:21:50.154Z,9.70
2019-03-27T18:24:33.252Z,9.70
2019-03-27T18:27:14.746Z,9.70
2019-03-27T18:29:45.630Z,9.70
2019-03-27T18:32:27.915Z,9.70
2019-03-27T18:35:09.705Z,9.70
2019-03-27T18:37:51.943Z,9.60
2019-03-27T18:40:41.516Z,9.60
2019-03-27T18:43:23.198Z,9.60
2019-03-27T18:46:05.160Z,9.60
2019-03-27T18:48:47.362Z,9.50
2019-03-27T18:51:29.359Z,9.60
2019-03-27T18:54:11.395Z,9.50
2019-03-27T18:56:53.432Z,9.50
2019-03-27T18:59:35.879Z,9.50
2019-03-27T19:02:06.779Z,9.50
2019-03-27T19:04:48.936Z,9.40
2019-03-27T19:07:31.295Z,9.40
2019-03-27T19:10:14.449Z,9.40
2019-03-27T19:12:56.584Z,9.40
2019-03-27T19:15:38.665Z,9.40
2019-03-27T19:18:20.921Z,9.30
2019-03-27T19:20:51.811Z,9.20
2019-03-27T19:23:34.187Z,9.20
2019-03-27T19:26:15.995Z,9.20
2019-03-27T19:28:58.319Z,9.10
2019-03-27T19:31:40.306Z,9.30
2019-03-27T19:34:22.094Z,9.20
2019-03-27T19:36:53.188Z,9.20
2019-03-27T19:39:36.860Z,9.20
2019-03-27T19:42:18.680Z,9.20
2019-03-27T19:45:01.124Z,9.20
2019-03-27T19:47:32.049Z,9.10
2019-03-27T19:50:15.590Z,9.10
2019-03-27T19:52:57.518Z,9.00
2019-03-27T19:55:39.963Z,9.00
2019-03-27T19:58:24.091Z,9.00
2019-03-27T20:01:06.458Z,9.00
2019-03-27T20:03:48.951Z,8.90
2019-03-27T20:06:31.089Z,8.80
2019-03-27T20:09:14.915Z,8.80
2019-03-27T20:11:57.256Z,8.70
2019-03-27T20:14:28.292Z,8.70
2019-03-27T20:17:09.820Z,8.60
2019-03-27T20:19:52.157Z,8.60
2019-03-27T20:22:34.613Z,8.40
2019-03-27T20:25:17.674Z,8.40
2019-03-27T20:28:00.004Z,8.50
2019-03-27T20:30:41.756Z,8.50
2019-03-27T20:33:24.307Z,8.40
2019-03-27T20:35:55.561Z,8.40
2019-03-27T20:38:45.166Z,8.50
2019-03-27T20:41:27.479Z,8.50
2019-03-27T20:44:09.824Z,8.50
2019-03-27T20:46:51.860Z,8.40
2019-03-27T20:49:34.157Z,8.40
2019-03-27T20:52:16.073Z,8.40
2019-03-27T20:54:54.740Z,8.30
2019-03-27T20:57:45.554Z,8.30
2019-03-27T21:00:27.391Z,8.30
2019-03-27T21:02:58.450Z,8.30
2019-03-27T21:08:50.909Z,8.20
2019-03-27T21:11:34.107Z,8.10
2019-03-27T21:14:05.165Z,8.10
2019-03-27T21:16:47.481Z,8.00
2019-03-27T21:19:29.639Z,8.00
2019-03-27T21:22:11.690Z,8.00
2019-03-27T21:25:07.702Z,7.80
2019-03-27T21:27:37.970Z,7.80
2019-03-27T21:30:19.454Z,7.80
2019-03-27T21:33:01.053Z,7.60
2019-03-27T21:35:43.254Z,7.50
2019-03-27T21:38:14.128Z,7.40
2019-03-27T21:41:06.365Z,7.40
2019-03-27T21:43:48.831Z,7.30
2019-03-27T21:46:30.822Z,7.20
2019-03-27T21:49:12.687Z,7.10
2019-03-27T21:51:54.724Z,7.00
2019-03-27T21:54:25.726Z,6.90
2019-03-27T21:57:07.943Z,6.80
2019-03-27T21:59:39.016Z,6.80
2019-03-27T22:05:02.335Z,6.70
2019-03-27T22:07:33.266Z,6.60
2019-03-27T22:10:15.504Z,6.60
2019-03-27T22:12:57.551Z,6.50
2019-03-27T22:15:40.529Z,6.50
2019-03-27T22:18:22.990Z,6.50
2019-03-27T22:21:05.244Z,6.50
2019-03-27T22:23:47.463Z,6.50
2019-03-27T22:26:18.414Z,6.50
2019-03-27T22:29:08.098Z,6.50
2019-03-27T22:31:50.179Z,6.50
2019-03-27T22:34:32.226Z,6.40
2019-03-27T22:37:14.411Z,6.40
2019-03-27T22:39:56.263Z,6.40
2019-03-27T22:42:41.303Z,6.30
2019-03-27T22:45:23.027Z,6.30
2019-03-27T22:48:04.679Z,6.30
2019-03-27T22:50:35.632Z,6.30
2019-03-27T22:53:25.377Z,6.30
2019-03-27T22:55:56.173Z,6.30
2019-03-27T22:58:45.750Z,6.30
2019-03-27T23:01:28.055Z,6.20
2019-03-27T23:04:10.022Z,6.20
2019-03-27T23:06:52.163Z,6.20
2019-03-27T23:09:34.350Z,6.20
2019-03-27T23:12:16.557Z,6.10
2019-03-27T23:14:58.408Z,6.10
2019-03-27T23:17:40.570Z,6.10
2019-03-27T23:20:22.550Z,6.10
2019-03-27T23:23:05.102Z,6.10
2019-03-27T23:25:46.716Z,6.10
2019-03-27T23:28:28.662Z,6.00
2019-03-27T23:31:10.917Z,6.10
2019-03-27T23:33:53.084Z,6.10
2019-03-27T23:36:35.118Z,6.10
2019-03-27T23:39:17.179Z,6.10
2019-03-27T23:41:58.952Z,6.10
2019-03-27T23:44:40.576Z,6.00
2019-03-27T23:47:11.498Z,6.10
2019-03-27T23:49:53.746Z,6.00
2019-03-27T23:52:35.852Z,6.00
2019-03-27T23:55:18.776Z,6.10
2019-03-27T23:58:01.036Z,6.10
